KFST/FST METAR and TAF weather

Enter ICAO airport designator
Station Type Date Time Source
KFST METAR 2019/09/21 21:53 UTC NOAA

KFST 212153Z AUTO 14009KT 10SM SCT075 OVC100 26/20 A2997 RMK AO2 RAE14 SLP101 P0000 T02610200


Station Type Date Time Source
KFST Decoded METAR 2019/09/21 21:53 UTC NOAA

FORT STOCKTON PECOS CO AIRPORT , TX, United States (KFST) 30-55N 102-55W 918M
Sep 21, 2019 - 05:53 PM EDT / 2019.09.21 2153 UTC
Wind: from the SE (140 degrees) at 10 MPH (9 KT):0
Visibility: 10 mile(s):0
Sky conditions: overcast
Precipitation last hour: A trace
Temperature: 79.0 F (26.1 C)
Dew Point: 68.0 F (20.0 C)
Relative Humidity: 69%
Pressure (altimeter): 29.97 in. Hg (1014 hPa)
ob: KFST 212153Z AUTO 14009KT 10SM SCT075 OVC100 26/20 A2997 RMK AO2 RAE14 SLP101 P0000 T02610200
cycle: 22

Station Type Date Time Source
KFST TAF 2019/09/21 18:24 UTC NOAA

TAF KFST 211722Z 2118/2218 13011KT P6SM SCT030 BKN100
TEMPO 2122/2202 VRB20G30KT 5SM -TSRA OVC035CB
FM220300 11010KT P6SM BKN050
TEMPO 2203/2207 VRB20G30KT 3SM TSRA BKN030CB
FM220700 20007KT 3SM TSRA BKN030CB
FM221200 18007KT P6SM BKN100

Example: see airport list